sensor_id;sensor_type;location;lat;lon;timestamp;temperature;humidity
9437;DHT22;4757;59.334;18.034;2022-09-24T00:01:36;12.00;99.90
9437;DHT22;4757;59.334;18.034;2022-09-24T00:04:09;12.00;99.90
9437;DHT22;4757;59.334;18.034;2022-09-24T00:06:46;12.00;99.90
9437;DHT22;4757;59.334;18.034;2022-09-24T00:09:15;12.00;99.90
9437;DHT22;4757;59.334;18.034;2022-09-24T00:11:42;12.00;99.90
9437;DHT22;4757;59.334;18.034;2022-09-24T00:14:11;11.90;99.90
9437;DHT22;4757;59.334;18.034;2022-09-24T00:16:40;11.90;99.90
9437;DHT22;4757;59.334;18.034;2022-09-24T00:19:09;11.90;99.90
9437;DHT22;4757;59.334;18.034;2022-09-24T00:21:38;11.90;99.90
9437;DHT22;4757;59.334;18.034;2022-09-24T00:24:14;11.90;99.90
9437;DHT22;4757;59.334;18.034;2022-09-24T00:27:04;12.10;99.90
9437;DHT22;4757;59.334;18.034;2022-09-24T00:29:33;12.10;99.90
9437;DHT22;4757;59.334;18.034;2022-09-24T00:32:02;12.10;99.90
9437;DHT22;4757;59.334;18.034;2022-09-24T00:34:30;12.00;99.90
9437;DHT22;4757;59.334;18.034;2022-09-24T00:36:57;12.00;99.90
9437;DHT22;4757;59.334;18.034;2022-09-24T00:39:25;12.00;99.90
9437;DHT22;4757;59.334;18.034;2022-09-24T00:41:53;12.00;99.90
9437;DHT22;4757;59.334;18.034;2022-09-24T00:47:29;12.00;99.90
9437;DHT22;4757;59.334;18.034;2022-09-24T00:53:03;11.90;99.90
9437;DHT22;4757;59.334;18.034;2022-09-24T00:55:33;12.00;99.90
9437;DHT22;4757;59.334;18.034;2022-09-24T00:58:03;12.00;99.90
9437;DHT22;4757;59.334;18.034;2022-09-24T01:00:32;12.10;99.90
9437;DHT22;4757;59.334;18.034;2022-09-24T01:03:11;12.00;99.90
9437;DHT22;4757;59.334;18.034;2022-09-24T01:05:39;12.00;99.90
9437;DHT22;4757;59.334;18.034;2022-09-24T01:08:09;12.10;99.90
9437;DHT22;4757;59.334;18.034;2022-09-24T01:13:53;12.10;99.90
9437;DHT22;4757;59.334;18.034;2022-09-24T01:21:51;12.10;99.90
9437;DHT22;4757;59.334;18.034;2022-09-24T01:24:34;12.10;99.90
9437;DHT22;4757;59.334;18.034;2022-09-24T01:27:21;12.20;99.90
9437;DHT22;4757;59.334;18.034;2022-09-24T01:30:03;12.20;99.90
9437;DHT22;4757;59.334;18.034;2022-09-24T01:35:18;12.20;99.90
9437;DHT22;4757;59.334;18.034;2022-09-24T01:37:54;12.20;99.90
9437;DHT22;4757;59.334;18.034;2022-09-24T01:40:24;12.20;99.90
9437;DHT22;4757;59.334;18.034;2022-09-24T01:42:54;12.20;99.90
9437;DHT22;4757;59.334;18.034;2022-09-24T01:45:23;12.20;99.90
9437;DHT22;4757;59.334;18.034;2022-09-24T01:47:52;12.10;99.90
9437;DHT22;4757;59.334;18.034;2022-09-24T01:50:19;12.20;99.90
9437;DHT22;4757;59.334;18.034;2022-09-24T01:53:04;12.10;99.90
9437;DHT22;4757;59.334;18.034;2022-09-24T01:55:35;12.00;99.90
9437;DHT22;4757;59.334;18.034;2022-09-24T01:58:07;12.00;99.90
9437;DHT22;4757;59.334;18.034;2022-09-24T02:00:42;12.00;99.90
9437;DHT22;4757;59.334;18.034;2022-09-24T02:03:19;12.00;99.90
9437;DHT22;4757;59.334;18.034;2022-09-24T02:06:32;12.10;99.90
9437;DHT22;4757;59.334;18.034;2022-09-24T02:09:00;12.20;99.90
9437;DHT22;4757;59.334;18.034;2022-09-24T02:11:29;12.20;99.90
9437;DHT22;4757;59.334;18.034;2022-09-24T02:14:07;12.20;99.90
9437;DHT22;4757;59.334;18.034;2022-09-24T02:16:45;12.20;99.90
9437;DHT22;4757;59.334;18.034;2022-09-24T02:19:20;12.10;99.90
9437;DHT22;4757;59.334;18.034;2022-09-24T02:21:50;12.20;99.90
9437;DHT22;4757;59.334;18.034;2022-09-24T02:26:55;12.20;99.90
9437;DHT22;4757;59.334;18.034;2022-09-24T02:29:22;12.20;99.90
9437;DHT22;4757;59.334;18.034;2022-09-24T02:31:53;12.10;99.90
9437;DHT22;4757;59.334;18.034;2022-09-24T02:34:32;12.10;99.90
9437;DHT22;4757;59.334;18.034;2022-09-24T02:37:07;12.20;99.90
9437;DHT22;4757;59.334;18.034;2022-09-24T02:39:35;12.20;99.90
9437;DHT22;4757;59.334;18.034;2022-09-24T02:42:07;12.20;99.90
9437;DHT22;4757;59.334;18.034;2022-09-24T02:44:35;12.10;99.90
9437;DHT22;4757;59.334;18.034;2022-09-24T02:47:02;12.00;99.90
9437;DHT22;4757;59.334;18.034;2022-09-24T02:49:30;12.10;99.90
9437;DHT22;4757;59.334;18.034;2022-09-24T02:51:57;12.10;99.90
9437;DHT22;4757;59.334;18.034;2022-09-24T02:54:24;12.10;99.90
9437;DHT22;4757;59.334;18.034;2022-09-24T02:56:51;12.10;99.90
9437;DHT22;4757;59.334;18.034;2022-09-24T02:59:19;12.10;99.90
9437;DHT22;4757;59.334;18.034;2022-09-24T03:01:46;12.10;99.90
9437;DHT22;4757;59.334;18.034;2022-09-24T03:04:14;12.10;99.90
9437;DHT22;4757;59.334;18.034;2022-09-24T03:06:42;12.10;99.90
9437;DHT22;4757;59.334;18.034;2022-09-24T03:09:10;12.10;99.90
9437;DHT22;4757;59.334;18.034;2022-09-24T03:11:38;12.10;99.90
9437;DHT22;4757;59.334;18.034;2022-09-24T03:14:06;12.10;99.90
9437;DHT22;4757;59.334;18.034;2022-09-24T03:16:33;12.20;99.90
9437;DHT22;4757;59.334;18.034;2022-09-24T03:19:00;12.30;99.90
9437;DHT22;4757;59.334;18.034;2022-09-24T03:21:27;12.20;99.90
9437;DHT22;4757;59.334;18.034;2022-09-24T03:23:55;12.20;99.90
9437;DHT22;4757;59.334;18.034;2022-09-24T03:26:23;12.20;99.90
9437;DHT22;4757;59.334;18.034;2022-09-24T03:28:50;12.20;99.90
9437;DHT22;4757;59.334;18.034;2022-09-24T03:31:17;12.30;99.90
9437;DHT22;4757;59.334;18.034;2022-09-24T03:33:46;12.10;99.90
9437;DHT22;4757;59.334;18.034;2022-09-24T03:36:17;12.10;99.90
9437;DHT22;4757;59.334;18.034;2022-09-24T03:38:54;12.20;99.90
9437;DHT22;4757;59.334;18.034;2022-09-24T03:41:26;12.20;99.90
9437;DHT22;4757;59.334;18.034;2022-09-24T03:43:54;12.10;99.90
9437;DHT22;4757;59.334;18.034;2022-09-24T03:46:21;12.10;99.90
9437;DHT22;4757;59.334;18.034;2022-09-24T03:48:56;12.10;99.90
9437;DHT22;4757;59.334;18.034;2022-09-24T03:51:26;12.10;99.90
9437;DHT22;4757;59.334;18.034;2022-09-24T03:53:53;12.00;99.90
9437;DHT22;4757;59.334;18.034;2022-09-24T03:56:20;12.00;99.90
9437;DHT22;4757;59.334;18.034;2022-09-24T03:58:48;12.10;99.90
9437;DHT22;4757;59.334;18.034;2022-09-24T04:01:15;12.00;99.90
9437;DHT22;4757;59.334;18.034;2022-09-24T04:03:48;12.10;99.90
9437;DHT22;4757;59.334;18.034;2022-09-24T04:06:15;12.10;99.90
9437;DHT22;4757;59.334;18.034;2022-09-24T04:08:49;12.30;99.90
9437;DHT22;4757;59.334;18.034;2022-09-24T04:11:16;12.40;99.90
9437;DHT22;4757;59.334;18.034;2022-09-24T04:13:43;12.50;99.90
9437;DHT22;4757;59.334;18.034;2022-09-24T04:16:10;12.50;99.90
9437;DHT22;4757;59.334;18.034;2022-09-24T04:18:37;12.50;99.90
9437;DHT22;4757;59.334;18.034;2022-09-24T04:21:05;12.40;99.90
9437;DHT22;4757;59.334;18.034;2022-09-24T04:23:33;12.40;99.90
9437;DHT22;4757;59.334;18.034;2022-09-24T04:26:00;12.40;99.90
9437;DHT22;4757;59.334;18.034;2022-09-24T04:28:29;12.30;99.90
9437;DHT22;4757;59.334;18.034;2022-09-24T04:30:57;12.40;99.90
9437;DHT22;4757;59.334;18.034;2022-09-24T04:33:24;12.30;99.90
9437;DHT22;4757;59.334;18.034;2022-09-24T04:35:51;12.40;99.90
9437;DHT22;4757;59.334;18.034;2022-09-24T04:38:19;12.40;99.90
9437;DHT22;4757;59.334;18.034;2022-09-24T04:40:47;12.50;99.90
9437;DHT22;4757;59.334;18.034;2022-09-24T04:43:14;12.50;99.90
9437;DHT22;4757;59.334;18.034;2022-09-24T04:45:43;12.40;99.90
9437;DHT22;4757;59.334;18.034;2022-09-24T04:48:12;12.30;99.90
9437;DHT22;4757;59.334;18.034;2022-09-24T04:50:39;12.30;99.90
9437;DHT22;4757;59.334;18.034;2022-09-24T04:53:11;12.30;99.90
9437;DHT22;4757;59.334;18.034;2022-09-24T04:55:39;12.30;99.90
9437;DHT22;4757;59.334;18.034;2022-09-24T04:58:08;12.30;99.90
9437;DHT22;4757;59.334;18.034;2022-09-24T05:00:35;12.30;99.90
9437;DHT22;4757;59.334;18.034;2022-09-24T05:03:03;12.40;99.90
9437;DHT22;4757;59.334;18.034;2022-09-24T05:05:31;12.30;99.90
9437;DHT22;4757;59.334;18.034;2022-09-24T05:07:59;12.30;99.90
9437;DHT22;4757;59.334;18.034;2022-09-24T05:10:28;12.30;99.90
9437;DHT22;4757;59.334;18.034;2022-09-24T05:12:57;12.30;99.90
9437;DHT22;4757;59.334;18.034;2022-09-24T05:15:24;12.30;99.90
9437;DHT22;4757;59.334;18.034;2022-09-24T05:17:51;12.50;99.90
9437;DHT22;4757;59.334;18.034;2022-09-24T05:20:18;12.50;99.90
9437;DHT22;4757;59.334;18.034;2022-09-24T05:22:47;12.50;99.90
9437;DHT22;4757;59.334;18.034;2022-09-24T05:25:17;12.50;99.90
9437;DHT22;4757;59.334;18.034;2022-09-24T05:27:46;12.30;99.90
9437;DHT22;4757;59.334;18.034;2022-09-24T05:30:14;12.40;99.90
9437;DHT22;4757;59.334;18.034;2022-09-24T05:32:41;12.40;99.90
9437;DHT22;4757;59.334;18.034;2022-09-24T05:35:09;12.40;99.90
9437;DHT22;4757;59.334;18.034;2022-09-24T05:37:37;12.50;99.90
9437;DHT22;4757;59.334;18.034;2022-09-24T05:40:05;12.50;99.90
9437;DHT22;4757;59.334;18.034;2022-09-24T05:42:57;12.60;99.90
9437;DHT22;4757;59.334;18.034;2022-09-24T05:45:24;12.60;99.90
9437;DHT22;4757;59.334;18.034;2022-09-24T05:47:51;12.60;99.90
9437;DHT22;4757;59.334;18.034;2022-09-24T05:50:18;12.60;99.90
9437;DHT22;4757;59.334;18.034;2022-09-24T05:52:45;12.70;99.90
9437;DHT22;4757;59.334;18.034;2022-09-24T05:55:12;12.60;99.90
9437;DHT22;4757;59.334;18.034;2022-09-24T05:57:39;12.70;99.90
9437;DHT22;4757;59.334;18.034;2022-09-24T06:00:07;12.70;99.90
9437;DHT22;4757;59.334;18.034;2022-09-24T06:02:34;12.70;99.90
9437;DHT22;4757;59.334;18.034;2022-09-24T06:05:02;12.70;99.90
9437;DHT22;4757;59.334;18.034;2022-09-24T06:07:29;12.70;99.90
9437;DHT22;4757;59.334;18.034;2022-09-24T06:09:56;12.80;99.90
9437;DHT22;4757;59.334;18.034;2022-09-24T06:12:25;12.90;99.90
9437;DHT22;4757;59.334;18.034;2022-09-24T06:14:52;13.00;99.90
9437;DHT22;4757;59.334;18.034;2022-09-24T06:17:22;12.90;99.90
9437;DHT22;4757;59.334;18.034;2022-09-24T06:19:49;12.90;99.90
9437;DHT22;4757;59.334;18.034;2022-09-24T06:22:16;12.90;99.90
9437;DHT22;4757;59.334;18.034;2022-09-24T06:24:43;13.00;99.90
9437;DHT22;4757;59.334;18.034;2022-09-24T06:27:11;12.90;99.90
9437;DHT22;4757;59.334;18.034;2022-09-24T06:29:38;12.90;99.90
9437;DHT22;4757;59.334;18.034;2022-09-24T06:32:06;13.00;99.90
9437;DHT22;4757;59.334;18.034;2022-09-24T06:34:33;13.00;99.90
9437;DHT22;4757;59.334;18.034;2022-09-24T06:37:01;13.00;99.90
9437;DHT22;4757;59.334;18.034;2022-09-24T06:39:28;13.00;99.90
9437;DHT22;4757;59.334;18.034;2022-09-24T06:41:55;13.00;99.90
9437;DHT22;4757;59.334;18.034;2022-09-24T06:44:22;13.10;99.90
9437;DHT22;4757;59.334;18.034;2022-09-24T06:46:49;13.10;99.90
9437;DHT22;4757;59.334;18.034;2022-09-24T06:49:16;13.10;99.90
9437;DHT22;4757;59.334;18.034;2022-09-24T06:51:43;13.10;99.90
9437;DHT22;4757;59.334;18.034;2022-09-24T06:54:11;13.10;99.90
9437;DHT22;4757;59.334;18.034;2022-09-24T06:56:38;13.20;99.90
9437;DHT22;4757;59.334;18.034;2022-09-24T06:59:06;13.20;99.90
9437;DHT22;4757;59.334;18.034;2022-09-24T07:01:34;13.20;99.90
9437;DHT22;4757;59.334;18.034;2022-09-24T07:04:02;13.30;99.90
9437;DHT22;4757;59.334;18.034;2022-09-24T07:06:29;13.30;99.90
9437;DHT22;4757;59.334;18.034;2022-09-24T07:09:16;13.40;99.90
9437;DHT22;4757;59.334;18.034;2022-09-24T07:11:43;13.30;99.90
9437;DHT22;4757;59.334;18.034;2022-09-24T07:14:12;13.20;99.90
9437;DHT22;4757;59.334;18.034;2022-09-24T07:16:39;13.20;99.90
9437;DHT22;4757;59.334;18.034;2022-09-24T07:19:06;13.20;99.90
9437;DHT22;4757;59.334;18.034;2022-09-24T07:21:34;13.20;99.90
9437;DHT22;4757;59.334;18.034;2022-09-24T07:24:01;13.30;99.90
9437;DHT22;4757;59.334;18.034;2022-09-24T07:26:28;13.30;99.90
9437;DHT22;4757;59.334;18.034;2022-09-24T07:28:55;13.40;99.90
9437;DHT22;4757;59.334;18.034;2022-09-24T07:31:22;13.20;99.90
9437;DHT22;4757;59.334;18.034;2022-09-24T07:33:52;13.30;99.90
9437;DHT22;4757;59.334;18.034;2022-09-24T07:36:19;13.40;99.90
9437;DHT22;4757;59.334;18.034;2022-09-24T07:38:46;13.50;99.90
9437;DHT22;4757;59.334;18.034;2022-09-24T07:41:14;13.60;99.90
9437;DHT22;4757;59.334;18.034;2022-09-24T07:43:41;13.70;99.90
9437;DHT22;4757;59.334;18.034;2022-09-24T07:46:09;13.90;99.90
9437;DHT22;4757;59.334;18.034;2022-09-24T07:48:36;14.00;99.90
9437;DHT22;4757;59.334;18.034;2022-09-24T07:51:03;14.10;99.90
9437;DHT22;4757;59.334;18.034;2022-09-24T07:53:32;14.20;99.90
9437;DHT22;4757;59.334;18.034;2022-09-24T07:55:59;14.20;99.90
9437;DHT22;4757;59.334;18.034;2022-09-24T07:58:26;14.30;99.90
9437;DHT22;4757;59.334;18.034;2022-09-24T08:00:57;14.50;99.90
9437;DHT22;4757;59.334;18.034;2022-09-24T08:03:25;14.50;99.90
9437;DHT22;4757;59.334;18.034;2022-09-24T08:05:52;14.50;99.90
9437;DHT22;4757;59.334;18.034;2022-09-24T08:08:24;14.40;99.90
9437;DHT22;4757;59.334;18.034;2022-09-24T08:10:51;14.70;99.90
9437;DHT22;4757;59.334;18.034;2022-09-24T08:13:18;14.90;99.90
9437;DHT22;4757;59.334;18.034;2022-09-24T08:15:59;14.80;99.90
9437;DHT22;4757;59.334;18.034;2022-09-24T08:18:28;14.70;99.90
9437;DHT22;4757;59.334;18.034;2022-09-24T08:21:03;14.80;99.90
9437;DHT22;4757;59.334;18.034;2022-09-24T08:23:32;15.00;99.90
9437;DHT22;4757;59.334;18.034;2022-09-24T08:26:02;14.90;99.90
9437;DHT22;4757;59.334;18.034;2022-09-24T08:28:29;14.90;99.90
9437;DHT22;4757;59.334;18.034;2022-09-24T08:31:01;14.70;99.90
9437;DHT22;4757;59.334;18.034;2022-09-24T08:33:31;14.80;99.90
9437;DHT22;4757;59.334;18.034;2022-09-24T08:35:59;14.90;99.90
9437;DHT22;4757;59.334;18.034;2022-09-24T08:38:26;15.00;99.90
9437;DHT22;4757;59.334;18.034;2022-09-24T08:47:02;15.20;99.90
9437;DHT22;4757;59.334;18.034;2022-09-24T08:55:48;15.30;99.90
9437;DHT22;4757;59.334;18.034;2022-09-24T09:01:06;15.30;99.90
9437;DHT22;4757;59.334;18.034;2022-09-24T09:04:21;15.30;99.90
9437;DHT22;4757;59.334;18.034;2022-09-24T09:11:49;15.60;99.90
9437;DHT22;4757;59.334;18.034;2022-09-24T09:14:24;15.80;99.90
9437;DHT22;4757;59.334;18.034;2022-09-24T09:17:20;15.90;99.90
9437;DHT22;4757;59.334;18.034;2022-09-24T09:19:55;16.10;99.90
9437;DHT22;4757;59.334;18.034;2022-09-24T09:22:27;16.10;99.90
9437;DHT22;4757;59.334;18.034;2022-09-24T09:25:02;16.10;99.90
9437;DHT22;4757;59.334;18.034;2022-09-24T09:27:30;16.20;99.90
9437;DHT22;4757;59.334;18.034;2022-09-24T09:29:59;16.30;99.90
9437;DHT22;4757;59.334;18.034;2022-09-24T09:32:56;16.30;99.90
9437;DHT22;4757;59.334;18.034;2022-09-24T09:35:53;16.30;99.90
9437;DHT22;4757;59.334;18.034;2022-09-24T09:38:42;16.30;99.90
9437;DHT22;4757;59.334;18.034;2022-09-24T09:41:22;16.50;99.90
9437;DHT22;4757;59.334;18.034;2022-09-24T09:44:25;16.50;99.90
9437;DHT22;4757;59.334;18.034;2022-09-24T09:47:03;16.40;99.90
9437;DHT22;4757;59.334;18.034;2022-09-24T09:49:35;16.40;99.90
9437;DHT22;4757;59.334;18.034;2022-09-24T09:52:12;16.40;99.90
9437;DHT22;4757;59.334;18.034;2022-09-24T09:54:41;16.40;99.90
9437;DHT22;4757;59.334;18.034;2022-09-24T09:57:18;16.60;99.90
9437;DHT22;4757;59.334;18.034;2022-09-24T09:59:47;16.70;99.90
9437;DHT22;4757;59.334;18.034;2022-09-24T10:02:27;16.70;99.90
9437;DHT22;4757;59.334;18.034;2022-09-24T10:05:01;16.60;99.90
9437;DHT22;4757;59.334;18.034;2022-09-24T10:07:28;16.70;99.90
9437;DHT22;4757;59.334;18.034;2022-09-24T10:10:18;16.60;99.90
9437;DHT22;4757;59.334;18.034;2022-09-24T10:12:45;16.60;99.90
9437;DHT22;4757;59.334;18.034;2022-09-24T10:15:18;16.70;99.90
9437;DHT22;4757;59.334;18.034;2022-09-24T10:17:49;16.80;99.90
9437;DHT22;4757;59.334;18.034;2022-09-24T10:20:24;16.80;99.90
9437;DHT22;4757;59.334;18.034;2022-09-24T10:25:27;16.60;99.90
9437;DHT22;4757;59.334;18.034;2022-09-24T10:28:16;16.70;99.90
9437;DHT22;4757;59.334;18.034;2022-09-24T10:31:09;16.80;99.90
9437;DHT22;4757;59.334;18.034;2022-09-24T10:33:39;16.80;99.90
9437;DHT22;4757;59.334;18.034;2022-09-24T10:36:13;16.80;99.90
9437;DHT22;4757;59.334;18.034;2022-09-24T10:38:41;16.80;99.90
9437;DHT22;4757;59.334;18.034;2022-09-24T10:41:36;16.80;99.90
9437;DHT22;4757;59.334;18.034;2022-09-24T10:44:10;17.00;99.90
9437;DHT22;4757;59.334;18.034;2022-09-24T10:55:18;17.00;99.90
9437;DHT22;4757;59.334;18.034;2022-09-24T10:57:51;17.00;99.90
9437;DHT22;4757;59.334;18.034;2022-09-24T11:00:23;17.00;99.90
9437;DHT22;4757;59.334;18.034;2022-09-24T11:03:22;17.00;99.90
9437;DHT22;4757;59.334;18.034;2022-09-24T11:14:50;17.10;99.90
9437;DHT22;4757;59.334;18.034;2022-09-24T11:17:51;17.10;99.90
9437;DHT22;4757;59.334;18.034;2022-09-24T11:20:38;17.10;99.90
9437;DHT22;4757;59.334;18.034;2022-09-24T11:25:59;17.20;99.90
9437;DHT22;4757;59.334;18.034;2022-09-24T11:28:55;17.30;99.90
9437;DHT22;4757;59.334;18.034;2022-09-24T11:34:28;17.30;99.90
9437;DHT22;4757;59.334;18.034;2022-09-24T11:42:56;17.40;99.90
9437;DHT22;4757;59.334;18.034;2022-09-24T11:49:03;17.50;99.90
9437;DHT22;4757;59.334;18.034;2022-09-24T11:52:01;17.60;99.90
9437;DHT22;4757;59.334;18.034;2022-09-24T11:54:35;17.50;99.90
9437;DHT22;4757;59.334;18.034;2022-09-24T11:57:20;17.40;99.90
9437;DHT22;4757;59.334;18.034;2022-09-24T12:02:51;17.20;99.90
9437;DHT22;4757;59.334;18.034;2022-09-24T12:05:36;17.20;99.90
9437;DHT22;4757;59.334;18.034;2022-09-24T12:08:33;17.20;99.90
9437;DHT22;4757;59.334;18.034;2022-09-24T12:11:19;17.10;99.90
9437;DHT22;4757;59.334;18.034;2022-09-24T12:16:32;17.10;99.90
9437;DHT22;4757;59.334;18.034;2022-09-24T12:21:42;17.30;99.90
9437;DHT22;4757;59.334;18.034;2022-09-24T12:24:31;17.40;99.90
9437;DHT22;4757;59.334;18.034;2022-09-24T12:27:06;17.60;99.90
9437;DHT22;4757;59.334;18.034;2022-09-24T12:38:07;18.20;99.90
9437;DHT22;4757;59.334;18.034;2022-09-24T12:43:24;17.80;99.90
9437;DHT22;4757;59.334;18.034;2022-09-24T12:45:58;17.80;99.90
9437;DHT22;4757;59.334;18.034;2022-09-24T12:48:29;17.50;99.90
9437;DHT22;4757;59.334;18.034;2022-09-24T12:51:02;17.30;99.90
9437;DHT22;4757;59.334;18.034;2022-09-24T12:53:37;17.40;99.90
9437;DHT22;4757;59.334;18.034;2022-09-24T12:56:05;17.30;99.90
9437;DHT22;4757;59.334;18.034;2022-09-24T12:58:43;17.30;99.90
9437;DHT22;4757;59.334;18.034;2022-09-24T13:01:25;17.20;99.90
9437;DHT22;4757;59.334;18.034;2022-09-24T13:06:35;17.00;99.90
9437;DHT22;4757;59.334;18.034;2022-09-24T13:14:50;17.30;99.90
9437;DHT22;4757;59.334;18.034;2022-09-24T13:17:20;17.40;99.90
9437;DHT22;4757;59.334;18.034;2022-09-24T13:19:49;17.30;99.90
9437;DHT22;4757;59.334;18.034;2022-09-24T13:22:30;17.30;99.90
9437;DHT22;4757;59.334;18.034;2022-09-24T13:27:36;17.30;99.90
9437;DHT22;4757;59.334;18.034;2022-09-24T13:32:53;17.30;99.90
9437;DHT22;4757;59.334;18.034;2022-09-24T13:35:30;17.30;99.90
9437;DHT22;4757;59.334;18.034;2022-09-24T13:40:50;17.20;99.90
9437;DHT22;4757;59.334;18.034;2022-09-24T13:46:05;17.10;99.90
9437;DHT22;4757;59.334;18.034;2022-09-24T13:48:39;17.10;99.90
9437;DHT22;4757;59.334;18.034;2022-09-24T13:51:11;17.10;99.90
9437;DHT22;4757;59.334;18.034;2022-09-24T13:57:11;16.90;99.90
9437;DHT22;4757;59.334;18.034;2022-09-24T13:59:38;17.10;99.90
9437;DHT22;4757;59.334;18.034;2022-09-24T14:02:26;17.20;99.90
9437;DHT22;4757;59.334;18.034;2022-09-24T14:04:59;17.30;99.90
9437;DHT22;4757;59.334;18.034;2022-09-24T14:07:27;17.30;99.90
9437;DHT22;4757;59.334;18.034;2022-09-24T14:10:10;17.20;99.90
9437;DHT22;4757;59.334;18.034;2022-09-24T14:12:39;17.20;99.90
9437;DHT22;4757;59.334;18.034;2022-09-24T14:15:15;17.20;99.90
9437;DHT22;4757;59.334;18.034;2022-09-24T14:17:57;17.10;99.90
9437;DHT22;4757;59.334;18.034;2022-09-24T14:20:28;17.10;99.90
9437;DHT22;4757;59.334;18.034;2022-09-24T14:22:57;17.10;99.90
9437;DHT22;4757;59.334;18.034;2022-09-24T14:25:28;17.10;99.90
9437;DHT22;4757;59.334;18.034;2022-09-24T14:27:58;17.10;99.90
9437;DHT22;4757;59.334;18.034;2022-09-24T14:30:28;17.10;99.90
9437;DHT22;4757;59.334;18.034;2022-09-24T14:33:01;17.10;99.90
9437;DHT22;4757;59.334;18.034;2022-09-24T14:35:34;17.00;99.90
9437;DHT22;4757;59.334;18.034;2022-09-24T14:38:07;17.00;99.90
9437;DHT22;4757;59.334;18.034;2022-09-24T14:40:40;16.70;99.90
9437;DHT22;4757;59.334;18.034;2022-09-24T14:43:25;16.40;99.90
9437;DHT22;4757;59.334;18.034;2022-09-24T14:46:18;16.40;99.90
9437;DHT22;4757;59.334;18.034;2022-09-24T14:48:46;16.40;99.90
9437;DHT22;4757;59.334;18.034;2022-09-24T14:51:28;16.60;99.90
9437;DHT22;4757;59.334;18.034;2022-09-24T14:54:17;16.60;99.90
9437;DHT22;4757;59.334;18.034;2022-09-24T14:56:45;16.70;99.90
9437;DHT22;4757;59.334;18.034;2022-09-24T14:59:27;16.70;99.90
9437;DHT22;4757;59.334;18.034;2022-09-24T15:02:16;16.70;99.90
9437;DHT22;4757;59.334;18.034;2022-09-24T15:04:51;16.60;99.90
9437;DHT22;4757;59.334;18.034;2022-09-24T15:07:27;16.60;99.90
9437;DHT22;4757;59.334;18.034;2022-09-24T15:09:58;16.50;99.90
9437;DHT22;4757;59.334;18.034;2022-09-24T15:12:29;16.50;99.90
9437;DHT22;4757;59.334;18.034;2022-09-24T15:17:45;16.20;99.90
9437;DHT22;4757;59.334;18.034;2022-09-24T15:20:14;16.10;99.90
9437;DHT22;4757;59.334;18.034;2022-09-24T15:22:45;16.10;99.90
9437;DHT22;4757;59.334;18.034;2022-09-24T15:25:13;16.00;99.90
9437;DHT22;4757;59.334;18.034;2022-09-24T15:27:41;16.00;99.90
9437;DHT22;4757;59.334;18.034;2022-09-24T15:30:11;16.00;99.90
9437;DHT22;4757;59.334;18.034;2022-09-24T15:32:43;16.00;99.90
9437;DHT22;4757;59.334;18.034;2022-09-24T15:35:13;15.90;99.90
9437;DHT22;4757;59.334;18.034;2022-09-24T15:37:41;15.90;99.90
9437;DHT22;4757;59.334;18.034;2022-09-24T15:40:18;15.90;99.90
9437;DHT22;4757;59.334;18.034;2022-09-24T15:42:49;15.80;99.90
9437;DHT22;4757;59.334;18.034;2022-09-24T15:45:18;15.80;99.90
9437;DHT22;4757;59.334;18.034;2022-09-24T15:47:50;15.90;99.90
9437;DHT22;4757;59.334;18.034;2022-09-24T15:50:18;16.00;99.90
9437;DHT22;4757;59.334;18.034;2022-09-24T15:52:54;15.90;99.90
9437;DHT22;4757;59.334;18.034;2022-09-24T15:55:22;15.90;99.90
9437;DHT22;4757;59.334;18.034;2022-09-24T15:57:50;15.80;99.90
9437;DHT22;4757;59.334;18.034;2022-09-24T16:00:20;15.80;99.90
9437;DHT22;4757;59.334;18.034;2022-09-24T16:02:55;15.70;99.90
9437;DHT22;4757;59.334;18.034;2022-09-24T16:05:24;15.80;99.90
9437;DHT22;4757;59.334;18.034;2022-09-24T16:07:53;15.80;99.90
9437;DHT22;4757;59.334;18.034;2022-09-24T16:10:20;15.70;99.90
9437;DHT22;4757;59.334;18.034;2022-09-24T16:12:48;15.70;99.90
9437;DHT22;4757;59.334;18.034;2022-09-24T16:15:15;15.60;99.90
9437;DHT22;4757;59.334;18.034;2022-09-24T16:17:42;15.50;99.90
9437;DHT22;4757;59.334;18.034;2022-09-24T16:20:09;15.50;99.90
9437;DHT22;4757;59.334;18.034;2022-09-24T16:22:37;15.60;99.90
9437;DHT22;4757;59.334;18.034;2022-09-24T16:25:05;15.50;99.90
9437;DHT22;4757;59.334;18.034;2022-09-24T16:27:33;15.40;99.90
9437;DHT22;4757;59.334;18.034;2022-09-24T16:30:02;15.40;99.90
9437;DHT22;4757;59.334;18.034;2022-09-24T16:32:29;15.30;99.90
9437;DHT22;4757;59.334;18.034;2022-09-24T16:34:56;15.30;99.90
9437;DHT22;4757;59.334;18.034;2022-09-24T16:37:23;15.30;99.90
9437;DHT22;4757;59.334;18.034;2022-09-24T16:39:51;15.30;99.90
9437;DHT22;4757;59.334;18.034;2022-09-24T16:42:18;15.20;99.90
9437;DHT22;4757;59.334;18.034;2022-09-24T16:44:45;15.20;99.90
9437;DHT22;4757;59.334;18.034;2022-09-24T16:47:13;15.20;99.90
9437;DHT22;4757;59.334;18.034;2022-09-24T16:49:43;15.20;99.90
9437;DHT22;4757;59.334;18.034;2022-09-24T16:52:11;15.20;99.90
9437;DHT22;4757;59.334;18.034;2022-09-24T16:54:38;15.10;99.90
9437;DHT22;4757;59.334;18.034;2022-09-24T16:57:06;15.00;99.90
9437;DHT22;4757;59.334;18.034;2022-09-24T16:59:33;15.00;99.90
9437;DHT22;4757;59.334;18.034;2022-09-24T17:02:00;15.00;99.90
9437;DHT22;4757;59.334;18.034;2022-09-24T17:04:28;15.00;99.90
9437;DHT22;4757;59.334;18.034;2022-09-24T17:06:56;14.90;99.90
9437;DHT22;4757;59.334;18.034;2022-09-24T17:09:23;14.90;99.90
9437;DHT22;4757;59.334;18.034;2022-09-24T17:12:10;14.90;99.90
9437;DHT22;4757;59.334;18.034;2022-09-24T17:14:37;14.80;99.90
9437;DHT22;4757;59.334;18.034;2022-09-24T17:17:04;14.80;99.90
9437;DHT22;4757;59.334;18.034;2022-09-24T17:19:32;14.80;99.90
9437;DHT22;4757;59.334;18.034;2022-09-24T17:21:59;14.70;99.90
9437;DHT22;4757;59.334;18.034;2022-09-24T17:24:26;14.70;99.90
9437;DHT22;4757;59.334;18.034;2022-09-24T17:26:53;14.70;99.90
9437;DHT22;4757;59.334;18.034;2022-09-24T17:29:20;14.60;99.90
9437;DHT22;4757;59.334;18.034;2022-09-24T17:31:56;14.60;99.90
9437;DHT22;4757;59.334;18.034;2022-09-24T17:34:23;14.60;99.90
9437;DHT22;4757;59.334;18.034;2022-09-24T17:36:50;14.50;99.90
9437;DHT22;4757;59.334;18.034;2022-09-24T17:39:18;14.50;99.90
9437;DHT22;4757;59.334;18.034;2022-09-24T17:41:45;14.50;99.90
9437;DHT22;4757;59.334;18.034;2022-09-24T17:44:12;14.50;99.90
9437;DHT22;4757;59.334;18.034;2022-09-24T17:46:39;14.50;99.90
9437;DHT22;4757;59.334;18.034;2022-09-24T17:49:06;14.60;99.90
9437;DHT22;4757;59.334;18.034;2022-09-24T17:51:35;14.50;99.90
9437;DHT22;4757;59.334;18.034;2022-09-24T17:54:05;14.50;99.90
9437;DHT22;4757;59.334;18.034;2022-09-24T17:56:34;14.40;99.90
9437;DHT22;4757;59.334;18.034;2022-09-24T17:59:09;14.40;99.90
9437;DHT22;4757;59.334;18.034;2022-09-24T18:01:38;14.50;99.90
9437;DHT22;4757;59.334;18.034;2022-09-24T18:04:09;14.40;99.90
9437;DHT22;4757;59.334;18.034;2022-09-24T18:06:37;14.40;99.90
9437;DHT22;4757;59.334;18.034;2022-09-24T18:09:06;14.40;99.90
9437;DHT22;4757;59.334;18.034;2022-09-24T18:11:38;14.40;99.90
9437;DHT22;4757;59.334;18.034;2022-09-24T18:14:07;14.30;99.90